sensor_id;sensor_type;location;lat;lon;timestamp;P1;durP1;ratioP1;P2;durP2;ratioP2
10596;SDS011;5346;48.766;8.674;2023-05-07T00:00:12;2.58;;;2.13;;
10596;SDS011;5346;48.766;8.674;2023-05-07T00:02:48;3.78;;;2.30;;
10596;SDS011;5346;48.766;8.674;2023-05-07T00:05:15;2.20;;;2.00;;
10596;SDS011;5346;48.766;8.674;2023-05-07T00:07:56;3.72;;;2.08;;
10596;SDS011;5346;48.766;8.674;2023-05-07T00:10:37;4.32;;;2.38;;
10596;SDS011;5346;48.766;8.674;2023-05-07T00:13:04;5.85;;;2.40;;
10596;SDS011;5346;48.766;8.674;2023-05-07T00:15:37;2.80;;;2.40;;
10596;SDS011;5346;48.766;8.674;2023-05-07T00:18:05;3.80;;;2.53;;
10596;SDS011;5346;48.766;8.674;2023-05-07T00:20:38;4.50;;;2.85;;
10596;SDS011;5346;48.766;8.674;2023-05-07T00:23:06;5.13;;;2.30;;
10596;SDS011;5346;48.766;8.674;2023-05-07T00:25:33;5.32;;;2.58;;
10596;SDS011;5346;48.766;8.674;2023-05-07T00:28:06;4.05;;;2.50;;
10596;SDS011;5346;48.766;8.674;2023-05-07T00:30:40;2.55;;;2.30;;
10596;SDS011;5346;48.766;8.674;2023-05-07T00:33:07;3.30;;;2.55;;
10596;SDS011;5346;48.766;8.674;2023-05-07T00:35:42;5.90;;;2.95;;
10596;SDS011;5346;48.766;8.674;2023-05-07T00:38:12;4.25;;;2.67;;
10596;SDS011;5346;48.766;8.674;2023-05-07T00:40:45;5.70;;;2.63;;
10596;SDS011;5346;48.766;8.674;2023-05-07T00:43:13;4.18;;;2.67;;
10596;SDS011;5346;48.766;8.674;2023-05-07T00:45:46;4.45;;;2.70;;
10596;SDS011;5346;48.766;8.674;2023-05-07T00:48:14;4.93;;;2.65;;
10596;SDS011;5346;48.766;8.674;2023-05-07T00:50:42;6.05;;;2.90;;
10596;SDS011;5346;48.766;8.674;2023-05-07T00:53:16;7.60;;;2.47;;
10596;SDS011;5346;48.766;8.674;2023-05-07T00:55:50;2.90;;;2.60;;
10596;SDS011;5346;48.766;8.674;2023-05-07T00:58:24;3.17;;;2.78;;
10596;SDS011;5346;48.766;8.674;2023-05-07T01:00:59;3.95;;;2.75;;
10596;SDS011;5346;48.766;8.674;2023-05-07T01:03:33;5.28;;;2.58;;
10596;SDS011;5346;48.766;8.674;2023-05-07T01:06:07;3.67;;;2.92;;
10596;SDS011;5346;48.766;8.674;2023-05-07T01:08:36;3.65;;;2.50;;
10596;SDS011;5346;48.766;8.674;2023-05-07T01:11:12;6.40;;;2.50;;
10596;SDS011;5346;48.766;8.674;2023-05-07T01:13:46;4.22;;;2.65;;
10596;SDS011;5346;48.766;8.674;2023-05-07T01:16:29;3.45;;;2.55;;
10596;SDS011;5346;48.766;8.674;2023-05-07T01:19:03;6.07;;;2.72;;
10596;SDS011;5346;48.766;8.674;2023-05-07T01:21:37;4.18;;;2.67;;
10596;SDS011;5346;48.766;8.674;2023-05-07T01:24:12;6.28;;;3.10;;
10596;SDS011;5346;48.766;8.674;2023-05-07T01:26:39;3.42;;;2.55;;
10596;SDS011;5346;48.766;8.674;2023-05-07T01:29:15;4.93;;;2.67;;
10596;SDS011;5346;48.766;8.674;2023-05-07T01:31:42;3.08;;;2.78;;
10596;SDS011;5346;48.766;8.674;2023-05-07T01:34:18;3.13;;;2.53;;
10596;SDS011;5346;48.766;8.674;2023-05-07T01:36:54;5.03;;;2.85;;
10596;SDS011;5346;48.766;8.674;2023-05-07T01:39:31;3.92;;;3.15;;
10596;SDS011;5346;48.766;8.674;2023-05-07T01:42:05;3.47;;;3.17;;
10596;SDS011;5346;48.766;8.674;2023-05-07T01:44:46;4.50;;;3.33;;
10596;SDS011;5346;48.766;8.674;2023-05-07T01:47:20;3.38;;;2.80;;
10596;SDS011;5346;48.766;8.674;2023-05-07T01:49:56;4.75;;;2.45;;
10596;SDS011;5346;48.766;8.674;2023-05-07T01:52:30;4.43;;;2.83;;
10596;SDS011;5346;48.766;8.674;2023-05-07T01:54:58;4.63;;;2.60;;
10596;SDS011;5346;48.766;8.674;2023-05-07T01:57:33;3.35;;;2.85;;
10596;SDS011;5346;48.766;8.674;2023-05-07T02:00:00;3.92;;;2.50;;
10596;SDS011;5346;48.766;8.674;2023-05-07T02:02:36;3.15;;;2.30;;
10596;SDS011;5346;48.766;8.674;2023-05-07T02:05:05;4.90;;;2.88;;
10596;SDS011;5346;48.766;8.674;2023-05-07T02:07:45;3.50;;;2.40;;
10596;SDS011;5346;48.766;8.674;2023-05-07T02:10:26;2.80;;;2.30;;
10596;SDS011;5346;48.766;8.674;2023-05-07T02:12:59;4.70;;;2.65;;
10596;SDS011;5346;48.766;8.674;2023-05-07T02:15:37;4.25;;;3.00;;
10596;SDS011;5346;48.766;8.674;2023-05-07T02:18:11;4.53;;;2.83;;
10596;SDS011;5346;48.766;8.674;2023-05-07T02:20:38;4.50;;;2.60;;
10596;SDS011;5346;48.766;8.674;2023-05-07T02:23:12;8.50;;;2.55;;
10596;SDS011;5346;48.766;8.674;2023-05-07T02:25:39;4.03;;;2.20;;
10596;SDS011;5346;48.766;8.674;2023-05-07T02:28:14;3.95;;;2.38;;
10596;SDS011;5346;48.766;8.674;2023-05-07T02:30:41;2.80;;;2.60;;
10596;SDS011;5346;48.766;8.674;2023-05-07T02:33:14;7.05;;;2.95;;
10596;SDS011;5346;48.766;8.674;2023-05-07T02:35:41;3.95;;;2.50;;
10596;SDS011;5346;48.766;8.674;2023-05-07T02:38:15;3.20;;;2.58;;
10596;SDS011;5346;48.766;8.674;2023-05-07T02:40:50;5.95;;;3.00;;
10596;SDS011;5346;48.766;8.674;2023-05-07T02:43:17;5.32;;;2.80;;
10596;SDS011;5346;48.766;8.674;2023-05-07T02:45:59;3.42;;;2.80;;
10596;SDS011;5346;48.766;8.674;2023-05-07T02:48:41;3.63;;;2.60;;
10596;SDS011;5346;48.766;8.674;2023-05-07T02:51:14;3.58;;;2.50;;
10596;SDS011;5346;48.766;8.674;2023-05-07T02:53:49;4.22;;;2.95;;
10596;SDS011;5346;48.766;8.674;2023-05-07T02:56:22;6.25;;;2.53;;
10596;SDS011;5346;48.766;8.674;2023-05-07T02:58:59;8.35;;;2.88;;
10596;SDS011;5346;48.766;8.674;2023-05-07T03:01:33;2.83;;;2.50;;
10596;SDS011;5346;48.766;8.674;2023-05-07T03:04:01;6.28;;;2.63;;
10596;SDS011;5346;48.766;8.674;2023-05-07T03:06:35;2.60;;;2.40;;
10596;SDS011;5346;48.766;8.674;2023-05-07T03:09:16;2.55;;;2.33;;
10596;SDS011;5346;48.766;8.674;2023-05-07T03:11:49;5.43;;;2.50;;
10596;SDS011;5346;48.766;8.674;2023-05-07T03:14:30;3.70;;;2.38;;
10596;SDS011;5346;48.766;8.674;2023-05-07T03:16:57;3.83;;;2.50;;
10596;SDS011;5346;48.766;8.674;2023-05-07T03:19:30;3.65;;;2.33;;
10596;SDS011;5346;48.766;8.674;2023-05-07T03:21:58;2.42;;;2.22;;
10596;SDS011;5346;48.766;8.674;2023-05-07T03:24:31;3.47;;;2.97;;
10596;SDS011;5346;48.766;8.674;2023-05-07T03:26:59;5.55;;;2.88;;
10596;SDS011;5346;48.766;8.674;2023-05-07T03:29:33;3.80;;;3.40;;
10596;SDS011;5346;48.766;8.674;2023-05-07T03:32:07;3.97;;;2.70;;
10596;SDS011;5346;48.766;8.674;2023-05-07T03:34:42;3.15;;;2.50;;
10596;SDS011;5346;48.766;8.674;2023-05-07T03:37:15;3.92;;;2.97;;
10596;SDS011;5346;48.766;8.674;2023-05-07T03:39:43;4.57;;;2.97;;
10596;SDS011;5346;48.766;8.674;2023-05-07T03:42:16;4.00;;;3.35;;
10596;SDS011;5346;48.766;8.674;2023-05-07T03:44:44;3.67;;;2.70;;
10596;SDS011;5346;48.766;8.674;2023-05-07T03:47:17;3.33;;;2.90;;
10596;SDS011;5346;48.766;8.674;2023-05-07T03:49:45;2.83;;;2.63;;
10596;SDS011;5346;48.766;8.674;2023-05-07T03:52:12;3.33;;;2.53;;
10596;SDS011;5346;48.766;8.674;2023-05-07T03:54:45;4.40;;;2.80;;
10596;SDS011;5346;48.766;8.674;2023-05-07T03:57:13;3.97;;;2.75;;
10596;SDS011;5346;48.766;8.674;2023-05-07T03:59:47;5.15;;;2.60;;
10596;SDS011;5346;48.766;8.674;2023-05-07T04:02:20;3.08;;;2.63;;
10596;SDS011;5346;48.766;8.674;2023-05-07T04:04:55;3.97;;;2.70;;
10596;SDS011;5346;48.766;8.674;2023-05-07T04:07:22;3.30;;;2.40;;
10596;SDS011;5346;48.766;8.674;2023-05-07T04:09:56;2.83;;;2.60;;
10596;SDS011;5346;48.766;8.674;2023-05-07T04:12:31;2.45;;;2.25;;
10596;SDS011;5346;48.766;8.674;2023-05-07T04:15:05;3.75;;;2.58;;
10596;SDS011;5346;48.766;8.674;2023-05-07T04:17:40;2.65;;;2.40;;
10596;SDS011;5346;48.766;8.674;2023-05-07T04:20:08;3.05;;;2.75;;
10596;SDS011;5346;48.766;8.674;2023-05-07T04:22:43;3.28;;;2.92;;
10596;SDS011;5346;48.766;8.674;2023-05-07T04:25:11;2.80;;;2.50;;
10596;SDS011;5346;48.766;8.674;2023-05-07T04:27:45;5.72;;;2.20;;
10596;SDS011;5346;48.766;8.674;2023-05-07T04:30:12;4.95;;;2.42;;
10596;SDS011;5346;48.766;8.674;2023-05-07T04:32:46;4.10;;;2.40;;
10596;SDS011;5346;48.766;8.674;2023-05-07T04:35:22;2.92;;;2.60;;
10596;SDS011;5346;48.766;8.674;2023-05-07T04:37:55;4.10;;;2.50;;
10596;SDS011;5346;48.766;8.674;2023-05-07T04:40:30;3.42;;;2.53;;
10596;SDS011;5346;48.766;8.674;2023-05-07T04:42:57;5.07;;;2.75;;
10596;SDS011;5346;48.766;8.674;2023-05-07T04:45:30;2.78;;;2.35;;
10596;SDS011;5346;48.766;8.674;2023-05-07T04:48:05;2.83;;;2.30;;
10596;SDS011;5346;48.766;8.674;2023-05-07T04:50:32;7.70;;;2.45;;
10596;SDS011;5346;48.766;8.674;2023-05-07T04:53:06;4.35;;;2.10;;
10596;SDS011;5346;48.766;8.674;2023-05-07T04:55:33;5.78;;;1.95;;
10596;SDS011;5346;48.766;8.674;2023-05-07T04:58:07;2.90;;;2.13;;
10596;SDS011;5346;48.766;8.674;2023-05-07T05:00:35;3.15;;;2.17;;
10596;SDS011;5346;48.766;8.674;2023-05-07T05:03:09;2.88;;;2.10;;
10596;SDS011;5346;48.766;8.674;2023-05-07T05:05:36;3.47;;;2.60;;
10596;SDS011;5346;48.766;8.674;2023-05-07T05:08:03;2.40;;;2.20;;
10596;SDS011;5346;48.766;8.674;2023-05-07T05:10:43;4.22;;;2.50;;
10596;SDS011;5346;48.766;8.674;2023-05-07T05:13:17;3.78;;;2.10;;
10596;SDS011;5346;48.766;8.674;2023-05-07T05:15:44;3.55;;;2.75;;
10596;SDS011;5346;48.766;8.674;2023-05-07T05:18:19;4.72;;;2.97;;
10596;SDS011;5346;48.766;8.674;2023-05-07T05:20:47;3.00;;;2.60;;
10596;SDS011;5346;48.766;8.674;2023-05-07T05:23:21;2.88;;;2.45;;
10596;SDS011;5346;48.766;8.674;2023-05-07T05:25:55;3.83;;;2.20;;
10596;SDS011;5346;48.766;8.674;2023-05-07T05:28:24;2.33;;;2.13;;
10596;SDS011;5346;48.766;8.674;2023-05-07T05:31:07;3.28;;;2.15;;
10596;SDS011;5346;48.766;8.674;2023-05-07T05:33:47;3.67;;;2.08;;
10596;SDS011;5346;48.766;8.674;2023-05-07T05:36:21;5.03;;;2.10;;
10596;SDS011;5346;48.766;8.674;2023-05-07T05:38:48;2.88;;;2.10;;
10596;SDS011;5346;48.766;8.674;2023-05-07T05:41:23;2.70;;;2.40;;
10596;SDS011;5346;48.766;8.674;2023-05-07T05:43:50;5.10;;;2.35;;
10596;SDS011;5346;48.766;8.674;2023-05-07T05:46:24;4.32;;;2.20;;
10596;SDS011;5346;48.766;8.674;2023-05-07T05:49:01;3.22;;;2.30;;
10596;SDS011;5346;48.766;8.674;2023-05-07T05:51:36;3.75;;;2.30;;
10596;SDS011;5346;48.766;8.674;2023-05-07T05:54:09;2.95;;;2.20;;
10596;SDS011;5346;48.766;8.674;2023-05-07T05:56:37;3.85;;;2.10;;
10596;SDS011;5346;48.766;8.674;2023-05-07T05:59:13;4.95;;;2.20;;
10596;SDS011;5346;48.766;8.674;2023-05-07T06:01:40;2.78;;;1.98;;
10596;SDS011;5346;48.766;8.674;2023-05-07T06:04:08;5.53;;;1.58;;
10596;SDS011;5346;48.766;8.674;2023-05-07T06:06:41;3.42;;;1.85;;
10596;SDS011;5346;48.766;8.674;2023-05-07T06:09:08;3.30;;;1.80;;
10596;SDS011;5346;48.766;8.674;2023-05-07T06:11:49;3.80;;;2.22;;
10596;SDS011;5346;48.766;8.674;2023-05-07T06:14:26;2.15;;;1.95;;
10596;SDS011;5346;48.766;8.674;2023-05-07T06:16:59;9.02;;;2.30;;
10596;SDS011;5346;48.766;8.674;2023-05-07T06:19:27;2.50;;;2.15;;
10596;SDS011;5346;48.766;8.674;2023-05-07T06:22:01;4.90;;;2.25;;
10596;SDS011;5346;48.766;8.674;2023-05-07T06:24:34;3.58;;;2.10;;
10596;SDS011;5346;48.766;8.674;2023-05-07T06:27:08;4.47;;;2.63;;
10596;SDS011;5346;48.766;8.674;2023-05-07T06:29:36;3.97;;;3.20;;
10596;SDS011;5346;48.766;8.674;2023-05-07T06:32:10;4.20;;;2.95;;
10596;SDS011;5346;48.766;8.674;2023-05-07T06:34:39;3.97;;;2.97;;
10596;SDS011;5346;48.766;8.674;2023-05-07T06:37:07;5.00;;;3.50;;
10596;SDS011;5346;48.766;8.674;2023-05-07T06:39:40;3.42;;;2.80;;
10596;SDS011;5346;48.766;8.674;2023-05-07T06:42:08;5.78;;;2.88;;
10596;SDS011;5346;48.766;8.674;2023-05-07T06:44:42;6.55;;;2.33;;
10596;SDS011;5346;48.766;8.674;2023-05-07T06:47:16;4.10;;;2.60;;
10596;SDS011;5346;48.766;8.674;2023-05-07T06:49:50;2.92;;;2.15;;
10596;SDS011;5346;48.766;8.674;2023-05-07T06:52:24;4.30;;;3.20;;
10596;SDS011;5346;48.766;8.674;2023-05-07T06:54:51;3.97;;;2.35;;
10596;SDS011;5346;48.766;8.674;2023-05-07T06:57:24;5.80;;;3.28;;
10596;SDS011;5346;48.766;8.674;2023-05-07T06:59:52;2.60;;;2.40;;
10596;SDS011;5346;48.766;8.674;2023-05-07T07:02:26;6.28;;;3.55;;
10596;SDS011;5346;48.766;8.674;2023-05-07T07:04:53;4.25;;;2.80;;
10596;SDS011;5346;48.766;8.674;2023-05-07T07:07:27;3.42;;;2.55;;
10596;SDS011;5346;48.766;8.674;2023-05-07T07:10:07;4.47;;;2.63;;
10596;SDS011;5346;48.766;8.674;2023-05-07T07:12:49;4.95;;;2.40;;
10596;SDS011;5346;48.766;8.674;2023-05-07T07:15:23;2.95;;;2.38;;
10596;SDS011;5346;48.766;8.674;2023-05-07T07:17:51;3.03;;;2.70;;
10596;SDS011;5346;48.766;8.674;2023-05-07T07:20:25;3.63;;;2.75;;
10596;SDS011;5346;48.766;8.674;2023-05-07T07:22:58;4.07;;;2.50;;
10596;SDS011;5346;48.766;8.674;2023-05-07T07:25:33;3.33;;;2.33;;
10596;SDS011;5346;48.766;8.674;2023-05-07T07:28:00;3.03;;;1.98;;
10596;SDS011;5346;48.766;8.674;2023-05-07T07:30:33;3.55;;;2.70;;
10596;SDS011;5346;48.766;8.674;2023-05-07T07:33:08;4.43;;;2.38;;
10596;SDS011;5346;48.766;8.674;2023-05-07T07:35:42;5.03;;;2.70;;
10596;SDS011;5346;48.766;8.674;2023-05-07T07:38:09;3.30;;;2.45;;
10596;SDS011;5346;48.766;8.674;2023-05-07T07:40:42;2.92;;;2.63;;
10596;SDS011;5346;48.766;8.674;2023-05-07T07:43:17;3.33;;;2.50;;
10596;SDS011;5346;48.766;8.674;2023-05-07T07:45:51;3.00;;;2.17;;
10596;SDS011;5346;48.766;8.674;2023-05-07T07:48:24;3.75;;;2.97;;
10596;SDS011;5346;48.766;8.674;2023-05-07T07:50:58;4.00;;;2.33;;
10596;SDS011;5346;48.766;8.674;2023-05-07T07:53:33;6.50;;;2.70;;
10596;SDS011;5346;48.766;8.674;2023-05-07T07:56:00;2.67;;;2.20;;
10596;SDS011;5346;48.766;8.674;2023-05-07T07:58:34;3.45;;;2.30;;
10596;SDS011;5346;48.766;8.674;2023-05-07T08:01:08;3.67;;;2.50;;
10596;SDS011;5346;48.766;8.674;2023-05-07T08:03:43;4.47;;;2.55;;
10596;SDS011;5346;48.766;8.674;2023-05-07T08:06:10;5.70;;;2.65;;
10596;SDS011;5346;48.766;8.674;2023-05-07T08:08:50;2.80;;;2.50;;
10596;SDS011;5346;48.766;8.674;2023-05-07T08:11:32;2.95;;;2.60;;
10596;SDS011;5346;48.766;8.674;2023-05-07T08:14:06;4.40;;;2.72;;
10596;SDS011;5346;48.766;8.674;2023-05-07T08:16:40;3.72;;;2.53;;
10596;SDS011;5346;48.766;8.674;2023-05-07T08:19:14;3.53;;;2.45;;
10596;SDS011;5346;48.766;8.674;2023-05-07T08:21:41;3.75;;;2.45;;
10596;SDS011;5346;48.766;8.674;2023-05-07T08:24:15;3.85;;;2.60;;
10596;SDS011;5346;48.766;8.674;2023-05-07T08:26:42;5.38;;;2.88;;
10596;SDS011;5346;48.766;8.674;2023-05-07T08:29:18;4.28;;;2.53;;
10596;SDS011;5346;48.766;8.674;2023-05-07T08:31:45;4.18;;;2.47;;
10596;SDS011;5346;48.766;8.674;2023-05-07T08:34:12;5.72;;;3.47;;
10596;SDS011;5346;48.766;8.674;2023-05-07T08:36:46;4.75;;;3.10;;
10596;SDS011;5346;48.766;8.674;2023-05-07T08:39:17;4.97;;;3.40;;
10596;SDS011;5346;48.766;8.674;2023-05-07T08:41:52;4.05;;;3.63;;
10596;SDS011;5346;48.766;8.674;2023-05-07T08:44:23;3.10;;;2.30;;
10596;SDS011;5346;48.766;8.674;2023-05-07T08:47:01;2.75;;;2.55;;
10596;SDS011;5346;48.766;8.674;2023-05-07T08:49:29;5.20;;;2.85;;
10596;SDS011;5346;48.766;8.674;2023-05-07T08:52:03;4.22;;;2.80;;
10596;SDS011;5346;48.766;8.674;2023-05-07T08:54:30;4.25;;;2.60;;
10596;SDS011;5346;48.766;8.674;2023-05-07T08:56:58;4.07;;;3.47;;
10596;SDS011;5346;48.766;8.674;2023-05-07T08:59:32;4.25;;;2.58;;
10596;SDS011;5346;48.766;8.674;2023-05-07T09:01:59;3.22;;;2.33;;
10596;SDS011;5346;48.766;8.674;2023-05-07T09:04:35;2.67;;;2.47;;
10596;SDS011;5346;48.766;8.674;2023-05-07T09:07:02;3.88;;;2.30;;
10596;SDS011;5346;48.766;8.674;2023-05-07T09:09:32;3.75;;;2.88;;
10596;SDS011;5346;48.766;8.674;2023-05-07T09:12:07;3.35;;;2.65;;
10596;SDS011;5346;48.766;8.674;2023-05-07T09:14:41;4.32;;;2.60;;
10596;SDS011;5346;48.766;8.674;2023-05-07T09:17:18;4.25;;;2.83;;
10596;SDS011;5346;48.766;8.674;2023-05-07T09:19:45;4.53;;;2.45;;
10596;SDS011;5346;48.766;8.674;2023-05-07T09:22:26;6.20;;;2.45;;
10596;SDS011;5346;48.766;8.674;2023-05-07T09:24:53;3.65;;;2.40;;
10596;SDS011;5346;48.766;8.674;2023-05-07T09:27:27;4.55;;;2.30;;
10596;SDS011;5346;48.766;8.674;2023-05-07T09:30:06;3.05;;;2.35;;
10596;SDS011;5346;48.766;8.674;2023-05-07T09:32:41;3.33;;;2.50;;
10596;SDS011;5346;48.766;8.674;2023-05-07T09:35:15;2.75;;;2.55;;
10596;SDS011;5346;48.766;8.674;2023-05-07T09:37:44;5.82;;;2.67;;
10596;SDS011;5346;48.766;8.674;2023-05-07T09:40:25;4.03;;;2.28;;
10596;SDS011;5346;48.766;8.674;2023-05-07T09:42:55;3.42;;;2.30;;
10596;SDS011;5346;48.766;8.674;2023-05-07T09:45:29;2.95;;;2.45;;
10596;SDS011;5346;48.766;8.674;2023-05-07T09:47:56;4.22;;;2.25;;
10596;SDS011;5346;48.766;8.674;2023-05-07T09:50:39;3.38;;;2.20;;
10596;SDS011;5346;48.766;8.674;2023-05-07T09:53:23;2.72;;;1.92;;
10596;SDS011;5346;48.766;8.674;2023-05-07T09:55:51;3.95;;;2.33;;
10596;SDS011;5346;48.766;8.674;2023-05-07T09:58:28;2.92;;;2.25;;
10596;SDS011;5346;48.766;8.674;2023-05-07T10:00:57;4.68;;;2.22;;
10596;SDS011;5346;48.766;8.674;2023-05-07T10:03:31;3.40;;;2.42;;
10596;SDS011;5346;48.766;8.674;2023-05-07T10:06:01;3.72;;;2.50;;
10596;SDS011;5346;48.766;8.674;2023-05-07T10:08:38;5.70;;;2.80;;
10596;SDS011;5346;48.766;8.674;2023-05-07T10:11:26;2.97;;;2.45;;
10596;SDS011;5346;48.766;8.674;2023-05-07T10:14:01;4.07;;;2.63;;
10596;SDS011;5346;48.766;8.674;2023-05-07T10:16:32;3.88;;;2.80;;
10596;SDS011;5346;48.766;8.674;2023-05-07T10:19:11;6.38;;;3.15;;
10596;SDS011;5346;48.766;8.674;2023-05-07T10:21:39;13.93;;;3.60;;
10596;SDS011;5346;48.766;8.674;2023-05-07T10:24:36;6.68;;;4.38;;
10596;SDS011;5346;48.766;8.674;2023-05-07T10:27:11;6.32;;;3.85;;
10596;SDS011;5346;48.766;8.674;2023-05-07T10:33:04;7.15;;;4.05;;
10596;SDS011;5346;48.766;8.674;2023-05-07T10:35:42;8.80;;;4.20;;
10596;SDS011;5346;48.766;8.674;2023-05-07T10:38:13;4.88;;;3.78;;
10596;SDS011;5346;48.766;8.674;2023-05-07T10:40:41;7.88;;;4.38;;
10596;SDS011;5346;48.766;8.674;2023-05-07T10:43:16;11.13;;;4.57;;
10596;SDS011;5346;48.766;8.674;2023-05-07T10:51:30;6.00;;;4.68;;
10596;SDS011;5346;48.766;8.674;2023-05-07T10:56:45;6.10;;;4.18;;
10596;SDS011;5346;48.766;8.674;2023-05-07T11:01:55;7.47;;;4.30;;
10596;SDS011;5346;48.766;8.674;2023-05-07T11:04:32;6.25;;;4.40;;
10596;SDS011;5346;48.766;8.674;2023-05-07T11:15:44;7.35;;;4.72;;
10596;SDS011;5346;48.766;8.674;2023-05-07T11:18:06;7.57;;;5.07;;
10596;SDS011;5346;48.766;8.674;2023-05-07T11:26:09;7.80;;;4.97;;
10596;SDS011;5346;48.766;8.674;2023-05-07T11:28:44;8.27;;;4.82;;
10596;SDS011;5346;48.766;8.674;2023-05-07T11:31:22;5.15;;;4.40;;
10596;SDS011;5346;48.766;8.674;2023-05-07T11:34:01;7.15;;;5.03;;
10596;SDS011;5346;48.766;8.674;2023-05-07T11:36:30;6.60;;;5.35;;
10596;SDS011;5346;48.766;8.674;2023-05-07T11:39:06;8.95;;;7.70;;
10596;SDS011;5346;48.766;8.674;2023-05-07T11:42:24;6.80;;;6.05;;
10596;SDS011;5346;48.766;8.674;2023-05-07T11:45:07;7.32;;;5.25;;
10596;SDS011;5346;48.766;8.674;2023-05-07T11:47:36;8.73;;;4.70;;
10596;SDS011;5346;48.766;8.674;2023-05-07T11:50:04;8.00;;;4.38;;
10596;SDS011;5346;48.766;8.674;2023-05-07T11:52:40;8.35;;;4.10;;
10596;SDS011;5346;48.766;8.674;2023-05-07T11:55:25;4.30;;;3.60;;
10596;SDS011;5346;48.766;8.674;2023-05-07T11:57:59;5.07;;;3.38;;
10596;SDS011;5346;48.766;8.674;2023-05-07T12:00:26;3.13;;;2.65;;
10596;SDS011;5346;48.766;8.674;2023-05-07T12:03:03;2.65;;;1.77;;
10596;SDS011;5346;48.766;8.674;2023-05-07T12:05:38;15.27;;;8.68;;
10596;SDS011;5346;48.766;8.674;2023-05-07T12:08:18;5.30;;;2.65;;
10596;SDS011;5346;48.766;8.674;2023-05-07T12:10:54;3.35;;;1.90;;
10596;SDS011;5346;48.766;8.674;2023-05-07T12:13:35;5.15;;;2.10;;
10596;SDS011;5346;48.766;8.674;2023-05-07T12:16:02;3.28;;;1.90;;
10596;SDS011;5346;48.766;8.674;2023-05-07T12:18:38;2.38;;;2.13;;
10596;SDS011;5346;48.766;8.674;2023-05-07T12:21:13;5.20;;;1.70;;
10596;SDS011;5346;48.766;8.674;2023-05-07T12:23:47;7.63;;;2.00;;
10596;SDS011;5346;48.766;8.674;2023-05-07T12:26:14;2.50;;;1.77;;
10596;SDS011;5346;48.766;8.674;2023-05-07T12:28:48;1.75;;;1.63;;
10596;SDS011;5346;48.766;8.674;2023-05-07T12:31:22;3.35;;;2.00;;
10596;SDS011;5346;48.766;8.674;2023-05-07T12:33:56;8.05;;;5.43;;
10596;SDS011;5346;48.766;8.674;2023-05-07T12:36:38;3.70;;;2.33;;
10596;SDS011;5346;48.766;8.674;2023-05-07T12:39:13;3.03;;;2.22;;
10596;SDS011;5346;48.766;8.674;2023-05-07T12:44:25;3.08;;;2.50;;
10596;SDS011;5346;48.766;8.674;2023-05-07T12:47:06;2.88;;;2.47;;
10596;SDS011;5346;48.766;8.674;2023-05-07T12:49:40;3.55;;;2.88;;
10596;SDS011;5346;48.766;8.674;2023-05-07T12:52:15;6.20;;;2.70;;
10596;SDS011;5346;48.766;8.674;2023-05-07T12:54:42;3.15;;;2.85;;
10596;SDS011;5346;48.766;8.674;2023-05-07T12:57:19;3.38;;;2.72;;
10596;SDS011;5346;48.766;8.674;2023-05-07T12:59:47;5.32;;;2.88;;
10596;SDS011;5346;48.766;8.674;2023-05-07T13:02:21;5.15;;;2.72;;
10596;SDS011;5346;48.766;8.674;2023-05-07T13:05:01;4.13;;;2.92;;
10596;SDS011;5346;48.766;8.674;2023-05-07T13:07:35;4.60;;;3.53;;
10596;SDS011;5346;48.766;8.674;2023-05-07T13:10:10;4.63;;;3.22;;
10596;SDS011;5346;48.766;8.674;2023-05-07T13:12:49;4.63;;;2.78;;
10596;SDS011;5346;48.766;8.674;2023-05-07T13:15:17;3.50;;;2.78;;
10596;SDS011;5346;48.766;8.674;2023-05-07T13:17:52;3.45;;;2.83;;
10596;SDS011;5346;48.766;8.674;2023-05-07T13:20:19;3.55;;;2.65;;
10596;SDS011;5346;48.766;8.674;2023-05-07T13:22:53;5.25;;;3.33;;
10596;SDS011;5346;48.766;8.674;2023-05-07T13:25:20;3.15;;;2.78;;
10596;SDS011;5346;48.766;8.674;2023-05-07T13:27:54;3.38;;;2.67;;
10596;SDS011;5346;48.766;8.674;2023-05-07T13:30:35;3.25;;;2.88;;
10596;SDS011;5346;48.766;8.674;2023-05-07T13:33:09;3.50;;;2.80;;
10596;SDS011;5346;48.766;8.674;2023-05-07T13:35:36;3.22;;;2.63;;
10596;SDS011;5346;48.766;8.674;2023-05-07T13:38:10;2.78;;;2.22;;
10596;SDS011;5346;48.766;8.674;2023-05-07T13:40:44;4.40;;;2.90;;
10596;SDS011;5346;48.766;8.674;2023-05-07T13:43:18;4.80;;;2.60;;
10596;SDS011;5346;48.766;8.674;2023-05-07T13:45:52;5.55;;;2.60;;
10596;SDS011;5346;48.766;8.674;2023-05-07T13:48:19;3.35;;;2.60;;
10596;SDS011;5346;48.766;8.674;2023-05-07T13:50:53;6.15;;;2.70;;
10596;SDS011;5346;48.766;8.674;2023-05-07T13:53:27;5.07;;;2.63;;
10596;SDS011;5346;48.766;8.674;2023-05-07T13:56:01;4.07;;;2.50;;
10596;SDS011;5346;48.766;8.674;2023-05-07T13:58:30;4.90;;;2.80;;
10596;SDS011;5346;48.766;8.674;2023-05-07T14:01:24;4.72;;;3.00;;
10596;SDS011;5346;48.766;8.674;2023-05-07T14:03:51;6.55;;;3.38;;
10596;SDS011;5346;48.766;8.674;2023-05-07T14:06:25;5.03;;;3.03;;
10596;SDS011;5346;48.766;8.674;2023-05-07T14:08:52;3.95;;;3.00;;
10596;SDS011;5346;48.766;8.674;2023-05-07T14:11:19;4.20;;;3.38;;
10596;SDS011;5346;48.766;8.674;2023-05-07T14:13:54;4.28;;;3.13;;
10596;SDS011;5346;48.766;8.674;2023-05-07T14:16:29;6.07;;;3.10;;
10596;SDS011;5346;48.766;8.674;2023-05-07T14:18:56;5.47;;;3.60;;
10596;SDS011;5346;48.766;8.674;2023-05-07T14:21:30;3.50;;;2.85;;
10596;SDS011;5346;48.766;8.674;2023-05-07T14:23:57;2.90;;;2.60;;
10596;SDS011;5346;48.766;8.674;2023-05-07T14:26:33;2.92;;;2.63;;
10596;SDS011;5346;48.766;8.674;2023-05-07T14:29:01;4.13;;;2.67;;
10596;SDS011;5346;48.766;8.674;2023-05-07T14:31:36;4.15;;;2.58;;
10596;SDS011;5346;48.766;8.674;2023-05-07T14:34:03;2.97;;;2.47;;
10596;SDS011;5346;48.766;8.674;2023-05-07T14:36:30;2.40;;;2.20;;
10596;SDS011;5346;48.766;8.674;2023-05-07T14:39:05;2.60;;;2.40;;
10596;SDS011;5346;48.766;8.674;2023-05-07T14:41:32;2.85;;;2.30;;
10596;SDS011;5346;48.766;8.674;2023-05-07T14:43:59;3.35;;;2.53;;
10596;SDS011;5346;48.766;8.674;2023-05-07T14:46:33;3.10;;;2.47;;
10596;SDS011;5346;48.766;8.674;2023-05-07T14:49:07;2.78;;;2.20;;
10596;SDS011;5346;48.766;8.674;2023-05-07T14:51:45;5.53;;;2.55;;
10596;SDS011;5346;48.766;8.674;2023-05-07T14:54:20;5.15;;;2.35;;
10596;SDS011;5346;48.766;8.674;2023-05-07T14:56:53;4.40;;;2.35;;
10596;SDS011;5346;48.766;8.674;2023-05-07T14:59:28;3.05;;;2.35;;
10596;SDS011;5346;48.766;8.674;2023-05-07T15:01:55;3.22;;;2.10;;
10596;SDS011;5346;48.766;8.674;2023-05-07T15:04:32;2.55;;;2.20;;
10596;SDS011;5346;48.766;8.674;2023-05-07T15:07:00;3.92;;;2.00;;
10596;SDS011;5346;48.766;8.674;2023-05-07T15:09:29;3.85;;;2.33;;
10596;SDS011;5346;48.766;8.674;2023-05-07T15:12:03;2.95;;;2.40;;
10596;SDS011;5346;48.766;8.674;2023-05-07T15:14:44;2.47;;;2.10;;
10596;SDS011;5346;48.766;8.674;2023-05-07T15:17:18;2.50;;;2.30;;
10596;SDS011;5346;48.766;8.674;2023-05-07T15:19:52;2.72;;;2.20;;
10596;SDS011;5346;48.766;8.674;2023-05-07T15:22:27;2.35;;;2.10;;
10596;SDS011;5346;48.766;8.674;2023-05-07T15:24:54;2.83;;;2.10;;
10596;SDS011;5346;48.766;8.674;2023-05-07T15:27:29;2.63;;;2.00;;
10596;SDS011;5346;48.766;8.674;2023-05-07T15:30:05;6.00;;;2.38;;
10596;SDS011;5346;48.766;8.674;2023-05-07T15:32:40;4.95;;;2.28;;
10596;SDS011;5346;48.766;8.674;2023-05-07T15:35:09;2.30;;;2.10;;
10596;SDS011;5346;48.766;8.674;2023-05-07T15:37:43;5.35;;;2.08;;
10596;SDS011;5346;48.766;8.674;2023-05-07T15:40:17;4.05;;;2.10;;
10596;SDS011;5346;48.766;8.674;2023-05-07T15:42:45;2.05;;;1.85;;
10596;SDS011;5346;48.766;8.674;2023-05-07T15:45:19;2.78;;;1.70;;
10596;SDS011;5346;48.766;8.674;2023-05-07T15:47:46;3.28;;;1.88;;
10596;SDS011;5346;48.766;8.674;2023-05-07T15:50:20;2.38;;;1.73;;
10596;SDS011;5346;48.766;8.674;2023-05-07T15:52:47;1.85;;;1.52;;
10596;SDS011;5346;48.766;8.674;2023-05-07T15:55:21;4.80;;;1.83;;
10596;SDS011;5346;48.766;8.674;2023-05-07T15:57:48;5.85;;;2.00;;
10596;SDS011;5346;48.766;8.674;2023-05-07T16:00:22;3.38;;;2.00;;
10596;SDS011;5346;48.766;8.674;2023-05-07T16:03:00;3.30;;;1.73;;
10596;SDS011;5346;48.766;8.674;2023-05-07T16:05:34;2.90;;;2.50;;